Time;durP1;ratioP1;P1;durP2;ratioP2;P2;SDS_P1;SDS_P2;PMS_P1;PMS_P2;Temp;Humidity;BMP_temperature;BMP_pressure;BME280_temperature;BME280_humidity;BME280_pressure;Samples;Min_cycle;Max_cycle;Signal;HPM_P1;HPM_P2
2021/05/14 17:46:44;;;;;;;2.53;1.50;;;;;;;15.24;51.56;93041.22;5013636;28;885235;-58
2021/05/14 17:49:10;;;;;;;6.05;1.05;;;;;;;15.47;52.79;93063.72;5045542;28;20029;-58
2021/05/14 17:51:35;;;;;;;0.75;0.75;;;;;;;15.38;54.12;93058.88;5041828;28;20033;-52
2021/05/14 17:54:02;;;;;;;5.97;0.93;;;;;;;15.57;55.75;93070.00;5038493;28;20108;-59
2021/05/14 17:56:28;;;;;;;3.20;1.70;;;;;;;15.33;55.10;93066.22;5044345;28;20036;-59
2021/05/14 17:58:54;;;;;;;9.13;2.53;;;;;;;15.06;56.21;93074.03;5044947;28;20030;-59
2021/05/14 18:01:21;;;;;;;1.67;1.20;;;;;;;14.88;56.96;93073.44;5043510;28;20052;-59
2021/05/14 18:03:48;;;;;;;1.10;1.08;;;;;;;14.49;57.14;93071.97;5045658;28;20037;-59
2021/05/14 18:06:15;;;;;;;0.85;0.80;;;;;;;14.29;58.18;93060.09;5047423;28;20480;-59
2021/05/14 18:08:41;;;;;;;2.78;1.42;;;;;;;14.45;58.99;93082.78;5049758;28;20120;-59
2021/05/14 18:11:06;;;;;;;3.92;2.03;;;;;;;14.34;59.29;93078.53;5050029;28;20049;-58
2021/05/14 18:13:32;;;;;;;6.15;2.25;;;;;;;14.14;59.47;93081.84;5049704;28;20037;-58
2021/05/14 18:15:57;;;;;;;3.65;2.00;;;;;;;13.98;59.41;93083.41;5047504;28;20094;-58
2021/05/14 18:21:07;;;;;;;2.05;1.30;;;;;;;13.75;59.54;93086.53;5048015;28;20087;-58
2021/05/14 18:23:33;;;;;;;2.65;1.88;;;;;;;13.89;59.41;93090.38;5030839;28;20052;-57
2021/05/14 18:25:58;;;;;;;2.85;1.75;;;;;;;13.90;59.20;93099.44;5049559;28;20055;-58
2021/05/14 18:28:24;;;;;;;1.35;1.23;;;;;;;13.31;60.57;93075.53;5047947;28;20025;-57
2021/05/14 18:30:50;;;;;;;3.53;1.45;;;;;;;13.40;61.16;93110.16;5047354;28;20417;-59
2021/05/14 18:33:16;;;;;;;2.58;0.85;;;;;;;13.31;60.78;93106.03;5048078;28;20033;-57
2021/05/14 18:35:42;;;;;;;1.42;1.23;;;;;;;13.28;61.30;93106.44;5042148;28;20040;-56
2021/05/14 18:38:07;;;;;;;1.20;0.70;;;;;;;12.94;61.94;93101.66;5049348;28;20029;-57
2021/05/14 18:40:33;;;;;;;2.88;2.00;;;;;;;12.91;62.22;93097.25;5049566;28;20029;-57
2021/05/14 18:42:59;;;;;;;4.75;1.45;;;;;;;12.54;62.47;93101.94;5049351;28;20232;-57
2021/05/14 18:45:24;;;;;;;3.88;1.00;;;;;;;12.65;62.48;93129.13;5048636;28;20045;-57
2021/05/14 18:47:50;;;;;;;2.60;2.08;;;;;;;12.35;63.47;93112.09;5047500;28;20425;-55
2021/05/14 18:50:15;;;;;;;2.78;2.28;;;;;;;12.39;63.41;93131.81;5048739;28;20021;-57
2021/05/14 18:52:41;;;;;;;5.35;2.72;;;;;;;12.38;63.88;93133.84;5046287;28;20052;-57
2021/05/14 18:55:09;;;;;;;3.30;1.65;;;;;;;12.31;64.33;93148.50;5046407;28;20279;-56
2021/05/14 18:57:35;;;;;;;2.05;1.58;;;;;;;12.18;65.37;93155.06;5048786;28;20529;-54
2021/05/14 19:00:00;;;;;;;5.57;2.13;;;;;;;12.35;64.31;93150.84;5048755;28;20032;-56
2021/05/14 19:02:26;;;;;;;2.75;1.90;;;;;;;12.30;64.89;93160.13;5028386;28;20067;-59
2021/05/14 19:04:52;;;;;;;2.35;2.13;;;;;;;12.08;64.98;93150.72;5032142;28;20057;-57
2021/05/14 19:07:19;;;;;;;3.17;1.70;;;;;;;11.73;66.08;93155.41;5049974;28;20481;-46
2021/05/14 19:09:45;;;;;;;3.08;1.52;;;;;;;11.69;67.32;93159.84;5049765;28;20043;-44
2021/05/14 19:12:13;;;;;;;7.32;5.03;;;;;;;11.83;66.17;93174.88;5049632;28;20119;-41
2021/05/14 19:14:39;;;;;;;5.67;3.33;;;;;;;11.91;65.31;93156.22;5048762;28;20658;-42
2021/05/14 19:17:04;;;;;;;3.20;2.53;;;;;;;11.65;67.02;93171.28;5048654;28;20078;-45
2021/05/14 19:19:30;;;;;;;10.27;2.63;;;;;;;11.74;66.23;93172.72;5049118;28;20086;-46
2021/05/14 19:21:57;;;;;;;2.83;1.65;;;;;;;11.68;66.48;93175.72;5049997;28;20040;-44
2021/05/14 19:24:29;;;;;;;1.55;1.10;;;;;;;11.86;66.99;93168.97;5049540;28;20032;-44
2021/05/14 19:43:20;;;;;;;3.80;2.80;;;;;;;11.48;66.39;93160.13;5049690;28;20040;-45
2021/05/14 19:45:59;;;;;;;4.05;2.22;;;;;;;11.35;65.96;93180.47;5048628;28;20072;-45
2021/05/14 19:48:24;;;;;;;1.63;0.80;;;;;;;10.92;66.13;93180.09;5048148;28;20103;-46
2021/05/14 19:50:50;;;;;;;1.85;1.25;;;;;;;11.07;66.07;93180.03;5048907;28;20127;-46
2021/05/14 19:53:16;;;;;;;0.93;0.93;;;;;;;11.11;66.12;93172.13;5049052;28;20082;-48
2021/05/14 19:55:43;;;;;;;1.08;0.98;;;;;;;11.06;66.64;93173.81;5048899;28;20036;-47
2021/05/14 19:58:08;;;;;;;2.10;1.15;;;;;;;11.12;66.64;93179.84;5049423;28;20497;-48
2021/05/14 20:00:37;;;;;;;0.80;0.68;;;;;;;10.86;65.48;93176.81;5047141;28;20028;-46
2021/05/14 20:03:02;;;;;;;1.73;0.75;;;;;;;10.68;65.70;93177.97;5045350;28;20108;-45
2021/05/14 20:05:28;;;;;;;0.80;0.80;;;;;;;10.67;66.26;93177.22;5049141;28;20112;-44
2021/05/14 20:07:53;;;;;;;0.90;0.90;;;;;;;10.55;66.31;93187.91;5050455;28;20029;-45
2021/05/14 20:10:19;;;;;;;2.80;0.93;;;;;;;10.12;67.60;93176.38;5050070;28;20024;-45
2021/05/14 20:12:44;;;;;;;0.85;0.75;;;;;;;10.26;68.35;93183.94;5047222;28;20781;-45
2021/05/14 20:15:10;;;;;;;2.80;0.63;;;;;;;10.04;68.66;93168.09;5054225;28;20029;-45
2021/05/14 20:17:36;;;;;;;0.50;0.50;;;;;;;10.29;68.59;93188.31;5049283;28;20035;-45
2021/05/14 20:20:02;;;;;;;0.40;0.40;;;;;;;10.17;68.17;93186.50;5049795;28;20024;-46
2021/05/14 20:22:28;;;;;;;1.08;1.02;;;;;;;9.83;69.50;93181.31;5049509;28;20078;-45
2021/05/14 20:24:53;;;;;;;0.40;0.40;;;;;;;9.83;69.88;93192.34;5049817;28;20029;-45
2021/05/14 20:27:19;;;;;;;1.45;1.15;;;;;;;9.97;68.98;93187.38;5049612;28;20501;-44
2021/05/14 20:29:47;;;;;;;1.13;0.82;;;;;;;9.92;69.51;93183.50;5049571;28;20025;-45
2021/05/14 20:32:12;;;;;;;0.50;0.50;;;;;;;9.98;69.07;93167.53;5049352;28;20452;-44
2021/05/14 20:34:38;;;;;;;0.77;0.77;;;;;;;10.11;68.43;93178.41;5049438;28;20040;-46
2021/05/14 20:37:06;;;;;;;4.00;0.60;;;;;;;10.10;66.68;93170.66;5049274;28;20409;-43
2021/05/14 20:39:36;;;;;;;1.33;1.23;;;;;;;10.02;67.21;93167.91;5046279;28;20110;-46
2021/05/14 20:42:02;;;;;;;1.25;0.80;;;;;;;9.83;68.41;93171.00;5048384;28;20068;-46
2021/05/14 20:44:32;;;;;;;0.70;0.70;;;;;;;9.86;67.76;93169.91;5048569;28;20056;-48
2021/05/14 20:46:57;;;;;;;1.70;1.60;;;;;;;9.87;67.52;93174.13;5048687;28;20017;-44
2021/05/14 20:49:23;;;;;;;2.67;2.38;;;;;;;9.67;68.93;93177.81;5047030;28;20021;-45
2021/05/14 20:51:50;;;;;;;4.60;2.05;;;;;;;9.54;69.96;93171.72;5048601;28;20103;-43
2021/05/14 20:54:16;;;;;;;4.03;1.73;;;;;;;9.51;69.64;93151.50;5048260;28;20032;-45
2021/05/14 20:56:42;;;;;;;4.10;2.10;;;;;;;9.71;68.70;93163.66;5048297;28;20032;-45
2021/05/14 20:59:09;;;;;;;6.45;2.20;;;;;;;9.75;68.31;93170.28;5048527;28;20493;-44
2021/05/14 21:01:36;;;;;;;9.82;2.50;;;;;;;9.72;68.45;93170.66;5048854;28;20074;-45
2021/05/14 21:04:02;;;;;;;2.17;2.00;;;;;;;9.30;69.54;93172.22;5048567;28;20096;-45
2021/05/14 21:06:28;;;;;;;4.43;2.17;;;;;;;9.17;69.80;93156.56;5047861;28;20140;-44
2021/05/14 21:08:53;;;;;;;1.75;1.40;;;;;;;9.14;69.99;93168.66;5048379;28;20040;-44
2021/05/14 21:11:19;;;;;;;0.82;0.82;;;;;;;8.81;71.11;93162.16;5048130;28;20025;-44
2021/05/14 21:13:45;;;;;;;1.08;0.77;;;;;;;8.90;70.87;93171.91;5048726;28;20021;-43
2021/05/14 21:16:12;;;;;;;1.80;0.80;;;;;;;9.00;70.46;93173.59;5048292;28;20051;-44
2021/05/14 21:18:37;;;;;;;1.10;0.95;;;;;;;9.11;70.12;93173.28;5048079;28;20449;-44
2021/05/14 21:21:03;;;;;;;1.77;1.33;;;;;;;9.14;70.44;93182.44;5045847;28;20021;-44
2021/05/14 21:23:29;;;;;;;1.42;1.33;;;;;;;9.16;70.33;93171.59;5047551;28;20028;-44
2021/05/14 21:25:54;;;;;;;4.47;3.38;;;;;;;9.00;69.92;93176.34;5048484;28;20028;-44
2021/05/14 21:28:20;;;;;;;5.65;2.85;;;;;;;8.83;69.55;93134.06;5048415;28;20619;-46
2021/05/14 21:30:45;;;;;;;4.30;2.83;;;;;;;8.91;69.95;93182.38;5049302;28;20383;-44
2021/05/14 21:33:11;;;;;;;2.78;2.20;;;;;;;8.54;70.58;93160.91;5049677;28;20029;-46
2021/05/14 21:35:37;;;;;;;2.50;1.50;;;;;;;8.59;71.32;93176.53;5049641;28;20466;-45
2021/05/14 21:38:03;;;;;;;0.40;0.40;;;;;;;8.50;71.08;93174.28;5049508;28;20421;-45
2021/05/14 21:40:30;;;;;;;1.20;1.13;;;;;;;8.66;69.75;93181.34;5049076;28;20513;-47
2021/05/14 21:42:56;;;;;;;1.13;1.02;;;;;;;8.75;68.51;93178.06;5049039;28;20025;-45
2021/05/14 21:45:22;;;;;;;0.47;0.47;;;;;;;8.78;68.73;93190.00;5055720;28;20106;-46
2021/05/14 21:47:48;;;;;;;1.33;0.88;;;;;;;8.81;68.15;93177.91;5068017;28;20029;-47
2021/05/14 21:50:15;;;;;;;4.07;2.78;;;;;;;8.78;69.16;93181.75;5067856;28;20024;-45
2021/05/14 21:52:41;;;;;;;8.65;3.67;;;;;;;8.71;69.50;93176.94;5067301;28;20029;-46
2021/05/14 21:55:07;;;;;;;9.57;4.13;;;;;;;8.53;70.57;93181.44;5067633;28;20027;-47
2021/05/14 21:57:32;;;;;;;6.90;4.95;;;;;;;8.49;71.22;93175.53;5067393;28;20029;-44
2021/05/14 21:59:58;;;;;;;9.85;3.72;;;;;;;8.43;71.35;93176.97;5067508;28;20646;-46
2021/05/14 22:02:24;;;;;;;4.97;3.22;;;;;;;8.52;71.20;93174.47;5067319;28;20469;-45
2021/05/14 22:04:50;;;;;;;4.45;3.10;;;;;;;8.30;71.34;93166.81;5067665;28;20439;-45
2021/05/14 22:07:16;;;;;;;1.55;1.45;;;;;;;8.04;71.82;93177.97;5052439;28;20029;-44
2021/05/14 22:09:41;;;;;;;2.40;1.48;;;;;;;7.91;71.97;93180.78;5048239;28;20108;-46
2021/05/14 22:12:09;;;;;;;0.60;0.60;;;;;;;7.78;72.05;93178.13;5047438;28;20025;-48
2021/05/14 22:14:35;;;;;;;1.10;1.05;;;;;;;7.68;72.37;93177.13;5047111;28;20032;-46
2021/05/14 22:17:01;;;;;;;1.23;1.05;;;;;;;7.77;72.65;93173.91;5047426;28;20040;-46
2021/05/14 22:19:27;;;;;;;2.40;1.17;;;;;;;7.82;72.29;93184.75;5029408;28;20453;-47
2021/05/14 22:21:53;;;;;;;3.65;1.73;;;;;;;7.89;72.52;93189.59;5047385;28;20016;-45
2021/05/14 22:24:22;;;;;;;1.92;0.80;;;;;;;7.80;72.20;93178.31;5047442;28;20087;-45
2021/05/14 22:26:47;;;;;;;0.50;0.50;;;;;;;7.82;71.74;93186.78;5047593;28;20100;-46
2021/05/14 22:29:13;;;;;;;0.60;0.57;;;;;;;7.75;71.66;93185.44;5047145;28;20033;-46
2021/05/14 22:31:39;;;;;;;0.65;0.65;;;;;;;7.68;71.32;93158.63;5047394;28;20024;-46
2021/05/14 22:34:04;;;;;;;0.95;0.60;;;;;;;7.85;71.17;93183.69;5046908;28;20467;-49
2021/05/14 22:36:30;;;;;;;4.22;1.15;;;;;;;7.60;72.06;93180.53;5047329;28;20032;-48
2021/05/14 22:38:56;;;;;;;1.92;0.80;;;;;;;7.60;71.01;93174.31;5047209;28;20422;-48
2021/05/14 22:41:21;;;;;;;0.98;0.73;;;;;;;7.57;71.77;93180.88;5046021;28;20029;-45
2021/05/14 22:43:49;;;;;;;1.95;0.68;;;;;;;7.64;71.32;93178.19;5047148;28;20091;-45
2021/05/14 22:46:14;;;;;;;0.30;0.30;;;;;;;7.68;71.45;93172.38;5061039;28;20052;-46
2021/05/14 22:48:40;;;;;;;0.40;0.32;;;;;;;7.51;71.69;93175.50;5066779;28;20037;-47
2021/05/14 22:51:05;;;;;;;0.40;0.40;;;;;;;7.61;71.25;93168.28;5066893;28;20024;-44
2021/05/14 22:53:31;;;;;;;0.28;0.28;;;;;;;7.67;71.25;93170.19;5070529;28;20033;-47
2021/05/14 22:55:56;;;;;;;0.55;0.55;;;;;;;7.63;71.76;93167.75;5070678;28;20021;-47
2021/05/14 22:58:22;;;;;;;0.43;0.40;;;;;;;7.71;71.49;93171.28;5070750;28;20024;-47
2021/05/14 23:00:47;;;;;;;0.45;0.30;;;;;;;7.56;72.42;93168.41;5070947;28;20029;-44
2021/05/14 23:03:13;;;;;;;2.83;0.43;;;;;;;7.28;73.13;93174.56;5070593;28;20040;-46
2021/05/14 23:05:38;;;;;;;1.00;0.75;;;;;;;7.42;72.85;93165.00;5054075;28;20021;-46
2021/05/14 23:08:05;;;;;;;0.38;0.38;;;;;;;7.48;72.43;93170.34;5052167;28;20032;-45
2021/05/14 23:10:31;;;;;;;0.50;0.50;;;;;;;7.46;73.34;93164.66;5051936;28;20043;-48
2021/05/14 23:12:56;;;;;;;3.67;1.92;;;;;;;7.40;72.84;93167.56;5051735;28;20418;-45
2021/05/14 23:15:22;;;;;;;0.93;0.77;;;;;;;7.11;72.43;93168.72;5051607;28;20032;-46
2021/05/14 23:17:47;;;;;;;0.73;0.68;;;;;;;7.03;72.43;93164.41;5045177;28;20029;-45
2021/05/14 23:20:13;;;;;;;0.32;0.32;;;;;;;7.05;72.01;93164.59;5051538;28;20475;-46
2021/05/14 23:22:39;;;;;;;1.25;0.55;;;;;;;7.19;71.68;93144.81;5052006;28;20052;-46
2021/05/14 23:25:06;;;;;;;2.10;1.17;;;;;;;7.38;71.48;93153.63;5050423;28;20048;-49
2021/05/14 23:27:31;;;;;;;2.53;1.88;;;;;;;7.32;72.81;93155.03;5051361;28;20025;-47
2021/05/14 23:29:57;;;;;;;2.75;1.73;;;;;;;7.23;73.35;93158.97;5050933;28;20020;-48
2021/05/14 23:32:23;;;;;;;2.63;2.42;;;;;;;7.37;72.75;93157.63;5051497;28;20123;-46
2021/05/14 23:34:48;;;;;;;2.80;2.10;;;;;;;7.39;72.44;93159.81;5049221;28;20036;-44
2021/05/14 23:37:14;;;;;;;1.15;1.15;;;;;;;7.39;70.84;93159.81;5051740;28;20401;-45
2021/05/14 23:39:39;;;;;;;1.85;1.73;;;;;;;7.23;71.29;93163.72;5051349;28;20500;-46
2021/05/14 23:42:05;;;;;;;21.10;10.10;;;;;;;7.18;71.92;93161.81;5051478;28;20032;-46
2021/05/14 23:44:30;;;;;;;12.18;7.43;;;;;;;7.11;72.18;93146.75;5033783;28;20029;-43
2021/05/14 23:46:56;;;;;;;6.90;4.30;;;;;;;7.28;72.14;93160.81;5055494;28;20476;-46
2021/05/14 23:49:21;;;;;;;10.93;5.10;;;;;;;7.31;71.85;93156.28;5051231;28;20016;-45
2021/05/14 23:51:47;;;;;;;3.53;2.35;;;;;;;7.04;72.09;93158.38;5051476;28;20048;-47
2021/05/14 23:54:12;;;;;;;1.05;0.95;;;;;;;7.01;71.77;93147.72;5051493;28;20017;-45
2021/05/14 23:56:38;;;;;;;1.63;1.50;;;;;;;7.13;71.48;93152.44;5050458;28;20745;-45
2021/05/14 23:59:03;;;;;;;2.15;1.25;;;;;;;7.14;71.32;93144.94;5050680;28;20025;-43
